Time;durP1;ratioP1;P1;durP2;ratioP2;P2;SDS_P1;SDS_P2;PMS_P1;PMS_P2;Temp;Humidity;BMP_temperature;BMP_pressure;BME280_temperature;BME280_humidity;BME280_pressure;Samples;Min_cycle;Max_cycle;Signal;HPM_P1;HPM_P2
2021/09/20 00:00:05;;;;;;;1.32;1.22;;;;;;;7.63;79.55;92677.83;1782558;79;22131;-87
2021/09/20 00:02:32;;;;;;;3.05;1.02;;;;;;;7.62;79.88;92676.89;1803252;77;21045;-90
2021/09/20 00:05:00;;;;;;;1.20;1.10;;;;;;;7.61;79.87;92678.06;1787719;77;20996;-90
2021/09/20 00:07:27;;;;;;;0.98;0.98;;;;;;;7.61;80.17;92684.83;1764266;79;20974;-91
2021/09/20 00:09:53;;;;;;;1.50;1.27;;;;;;;7.59;79.76;92679.02;1737361;81;21203;-91
2021/09/20 00:12:21;;;;;;;0.85;0.85;;;;;;;7.61;79.64;92683.47;1807417;77;21022;-91
2021/09/20 00:14:48;;;;;;;1.25;1.10;;;;;;;7.60;79.48;92686.77;1804370;78;21023;-91
2021/09/20 00:17:16;;;;;;;1.10;1.00;;;;;;;7.59;79.29;92684.44;1770469;79;21073;-91
2021/09/20 00:19:44;;;;;;;1.22;1.12;;;;;;;7.60;79.64;92685.97;1750338;80;21073;-87
2021/09/20 00:22:11;;;;;;;1.10;1.00;;;;;;;7.60;79.62;92684.61;1764131;79;21269;-89
2021/09/20 00:24:39;;;;;;;1.10;1.00;;;;;;;7.60;79.55;92687.32;1792822;79;21078;-90
2021/09/20 00:27:10;;;;;;;0.93;0.90;;;;;;;7.59;79.64;92687.91;1765893;80;21500;-90
2021/09/20 00:29:37;;;;;;;1.00;0.80;;;;;;;7.62;79.54;92693.13;1798642;78;21378;-89
2021/09/20 00:32:06;;;;;;;0.80;0.80;;;;;;;7.62;79.39;92684.42;1781554;77;21025;-90
2021/09/20 00:34:32;;;;;;;0.90;0.90;;;;;;;7.63;79.40;92679.77;1782878;79;21395;-87
2021/09/20 00:37:00;;;;;;;0.80;0.80;;;;;;;7.62;79.61;92680.95;1786372;79;21232;-91
2021/09/20 00:39:28;;;;;;;1.67;1.22;;;;;;;7.62;79.72;92679.01;1773897;80;21112;-90
2021/09/20 00:41:59;;;;;;;1.95;0.80;;;;;;;7.61;79.68;92678.83;1761899;80;20943;-90
2021/09/20 00:44:27;;;;;;;0.90;0.88;;;;;;;7.61;79.61;92685.59;1827150;77;20966;-91
2021/09/20 00:46:53;;;;;;;1.25;1.15;;;;;;;7.62;79.24;92683.06;1772998;79;21104;-91
2021/09/20 00:49:21;;;;;;;0.68;0.68;;;;;;;7.62;79.40;92676.89;1783884;78;21025;-89
2021/09/20 00:51:50;;;;;;;1.10;1.00;;;;;;;7.63;79.46;92681.89;1792333;79;21586;-89
2021/09/20 00:54:16;;;;;;;0.85;0.85;;;;;;;7.63;79.23;92688.66;1763190;79;21691;-91
2021/09/20 00:56:43;;;;;;;0.80;0.80;;;;;;;7.61;79.16;92669.36;1777258;79;21001;-90
2021/09/20 00:59:09;;;;;;;0.88;0.88;;;;;;;7.62;79.42;92670.89;1777772;79;21004;-90
2021/09/20 01:01:36;;;;;;;1.15;1.05;;;;;;;7.61;79.21;92671.30;1775348;79;21697;-90
2021/09/20 01:04:02;;;;;;;0.88;0.88;;;;;;;7.60;79.82;92668.37;1760959;78;21619;-90
2021/09/20 01:06:29;;;;;;;1.10;1.00;;;;;;;7.55;80.10;92665.51;1784435;79;21053;-92
2021/09/20 01:08:55;;;;;;;1.80;0.80;;;;;;;7.50;80.60;92674.05;1798613;78;21001;-91
2021/09/20 01:11:22;;;;;;;1.22;1.12;;;;;;;7.47;80.68;92674.83;1763180;79;21104;-90
2021/09/20 01:13:49;;;;;;;0.90;0.90;;;;;;;7.45;80.67;92675.81;1785676;79;21750;-90
2021/09/20 01:16:15;;;;;;;1.12;0.90;;;;;;;7.43;81.41;92680.25;1794075;78;21089;-91
2021/09/20 01:18:43;;;;;;;0.85;0.85;;;;;;;7.42;81.67;92681.42;1781265;79;21042;-89
2021/09/20 01:21:13;;;;;;;0.72;0.72;;;;;;;7.43;81.45;92683.54;1765037;79;21010;-89
2021/09/20 01:23:38;;;;;;;1.30;1.20;;;;;;;7.44;81.29;92681.78;1766861;79;21480;-90
2021/09/20 01:26:04;;;;;;;1.30;1.02;;;;;;;7.44;81.19;92683.14;1790591;78;21118;-89
2021/09/20 01:28:30;;;;;;;1.20;1.10;;;;;;;7.46;81.36;92686.23;1802028;79;20960;-91
2021/09/20 01:30:58;;;;;;;1.30;1.15;;;;;;;7.49;81.18;92684.69;1778120;78;21037;-88
2021/09/20 01:33:24;;;;;;;1.20;1.07;;;;;;;7.51;81.30;92685.05;1782836;80;20932;-89
2021/09/20 01:35:52;;;;;;;1.32;0.93;;;;;;;7.52;81.20;92678.47;1777389;79;21058;-89
2021/09/20 01:38:18;;;;;;;3.75;0.75;;;;;;;7.54;81.22;92682.91;1779532;79;21101;-89
2021/09/20 01:40:46;;;;;;;1.07;1.05;;;;;;;7.57;81.22;92677.31;1770738;77;21033;-89
2021/09/20 01:43:13;;;;;;;1.05;1.00;;;;;;;7.62;81.16;92680.95;1792812;78;21085;-90
2021/09/20 01:45:40;;;;;;;1.00;1.00;;;;;;;7.65;81.27;92677.45;1795607;78;21041;-89
2021/09/20 01:48:07;;;;;;;1.00;1.00;;;;;;;7.65;81.30;92680.93;1781291;78;21097;-90
2021/09/20 01:50:34;;;;;;;0.90;0.90;;;;;;;7.65;81.22;92676.87;1797479;79;21817;-90
2021/09/20 01:53:01;;;;;;;1.07;1.05;;;;;;;7.64;81.87;92675.34;1801256;78;21053;-87
2021/09/20 01:55:28;;;;;;;0.75;0.75;;;;;;;7.63;82.56;92678.42;1807400;78;21169;-89
2021/09/20 01:57:54;;;;;;;1.22;1.12;;;;;;;7.62;82.57;92678.24;1812904;78;20969;-89
2021/09/20 02:00:21;;;;;;;1.20;1.10;;;;;;;7.60;83.08;92675.14;1764969;78;21128;-88
2021/09/20 02:02:47;;;;;;;1.12;1.00;;;;;;;7.60;83.42;92675.94;1768981;79;21533;-90
2021/09/20 02:05:14;;;;;;;0.98;0.98;;;;;;;7.62;83.56;92675.53;1743485;79;21058;-89
2021/09/20 02:07:42;;;;;;;1.65;1.10;;;;;;;7.62;84.07;92674.95;1760906;79;21651;-90
2021/09/20 02:10:09;;;;;;;1.20;1.10;;;;;;;7.63;84.01;92678.42;1736458;80;21077;-88
2021/09/20 02:12:35;;;;;;;1.45;1.35;;;;;;;7.61;84.49;92672.06;1741356;80;21108;-86
2021/09/20 02:15:04;;;;;;;2.05;1.35;;;;;;;7.62;85.11;92674.95;1738263;81;21661;-89
2021/09/20 02:17:32;;;;;;;2.80;1.30;;;;;;;7.65;84.93;92679.58;1748782;81;20990;-90
2021/09/20 02:20:00;;;;;;;1.17;1.05;;;;;;;7.68;84.98;92670.67;1795330;79;21010;-91
2021/09/20 02:22:28;;;;;;;1.10;1.00;;;;;;;7.71;84.87;92670.45;1774015;79;21027;-90
2021/09/20 02:24:55;;;;;;;1.37;1.27;;;;;;;7.73;85.08;92662.72;1783598;79;20983;-90
2021/09/20 02:27:22;;;;;;;1.05;1.00;;;;;;;7.74;84.87;92662.91;1807693;78;21077;-89
2021/09/20 02:29:52;;;;;;;1.22;1.12;;;;;;;7.76;84.85;92654.59;1774093;79;20900;-89
2021/09/20 02:32:20;;;;;;;1.62;1.25;;;;;;;7.78;84.70;92659.59;1760744;80;20930;-89
2021/09/20 02:34:47;;;;;;;1.00;0.90;;;;;;;7.78;84.77;92660.39;1766329;79;21062;-90
2021/09/20 02:37:14;;;;;;;3.25;1.02;;;;;;;7.75;84.99;92664.47;1742397;81;21017;-89
2021/09/20 02:39:40;;;;;;;1.20;1.17;;;;;;;7.70;85.07;92659.45;1758223;80;21571;-89
2021/09/20 02:42:06;;;;;;;1.87;1.50;;;;;;;7.68;85.39;92661.80;1755999;79;21313;-89
2021/09/20 02:44:34;;;;;;;1.65;1.37;;;;;;;7.66;85.47;92659.47;1785064;78;21014;-90
2021/09/20 02:47:01;;;;;;;3.42;1.25;;;;;;;7.64;85.72;92654.28;1785749;78;21021;-89
2021/09/20 02:49:27;;;;;;;1.40;1.30;;;;;;;7.62;86.06;92656.59;1802677;78;21014;-90
2021/09/20 02:51:55;;;;;;;2.75;1.40;;;;;;;7.60;86.53;92657.56;1771951;79;20912;-89
2021/09/20 02:54:22;;;;;;;1.52;1.27;;;;;;;7.52;86.59;92650.86;1769320;79;21037;-89
2021/09/20 02:56:49;;;;;;;2.92;1.20;;;;;;;7.51;87.31;92654.70;1772440;79;20935;-89
2021/09/20 02:59:15;;;;;;;9.53;2.75;;;;;;;7.45;87.76;92656.30;1790337;79;21014;-88
2021/09/20 03:01:41;;;;;;;2.77;1.10;;;;;;;7.40;88.17;92659.39;1784482;78;21019;-90
2021/09/20 03:04:08;;;;;;;1.47;1.35;;;;;;;7.41;88.37;92656.89;1801000;78;21991;-90
2021/09/20 03:06:35;;;;;;;1.35;1.27;;;;;;;7.45;87.83;92656.30;1801995;78;21054;-89
2021/09/20 03:09:03;;;;;;;1.55;1.42;;;;;;;7.47;87.88;92654.54;1767629;79;21045;-89
2021/09/20 03:11:30;;;;;;;1.40;1.30;;;;;;;7.51;87.58;92657.41;1772726;78;20963;-89
2021/09/20 03:13:57;;;;;;;1.65;1.32;;;;;;;7.53;87.36;92653.73;1797496;78;21336;-89
2021/09/20 03:16:25;;;;;;;1.20;1.12;;;;;;;7.52;87.31;92650.86;1769649;79;21064;-86
2021/09/20 03:18:53;;;;;;;2.30;1.57;;;;;;;7.47;87.34;92648.55;1787496;79;21251;-89
2021/09/20 03:21:23;;;;;;;1.50;1.40;;;;;;;7.41;87.82;92652.05;1775059;80;21006;-90
2021/09/20 03:23:52;;;;;;;1.90;1.55;;;;;;;7.36;88.22;92662.70;1774060;79;22175;-89
2021/09/20 03:26:19;;;;;;;1.45;1.35;;;;;;;7.30;88.61;92662.92;1773507;79;21045;-90
2021/09/20 03:28:46;;;;;;;1.82;1.40;;;;;;;7.23;88.91;92658.89;1778518;79;22197;-90
2021/09/20 03:31:12;;;;;;;1.10;1.10;;;;;;;7.18;89.54;92665.45;1776107;79;21015;-89
2021/09/20 03:33:40;;;;;;;5.05;1.57;;;;;;;7.15;89.96;92663.56;1803442;78;20999;-90
2021/09/20 03:36:07;;;;;;;2.17;1.30;;;;;;;7.13;90.20;92665.10;1804311;78;21026;-90
2021/09/20 03:38:33;;;;;;;1.42;1.32;;;;;;;7.12;90.60;92670.33;1794306;79;21076;-89
2021/09/20 03:41:00;;;;;;;1.40;1.30;;;;;;;7.10;90.85;92676.11;1787114;79;21137;-88
2021/09/20 03:43:27;;;;;;;2.47;1.22;;;;;;;7.11;91.09;92668.77;1788972;79;21611;-88
2021/09/20 03:45:55;;;;;;;1.87;1.40;;;;;;;7.11;91.13;92676.87;1813315;78;21109;-90
2021/09/20 03:48:21;;;;;;;2.50;1.22;;;;;;;7.10;91.40;92682.09;1785213;79;21343;-89
2021/09/20 03:50:48;;;;;;;1.50;1.37;;;;;;;7.08;91.64;92677.68;1786731;78;21079;-89
2021/09/20 03:53:14;;;;;;;1.27;1.17;;;;;;;7.06;91.79;92682.11;1801153;78;21079;-91
2021/09/20 03:55:41;;;;;;;3.12;1.30;;;;;;;7.08;91.67;92679.03;1773671;80;21051;-88
2021/09/20 03:58:07;;;;;;;3.55;1.50;;;;;;;7.13;91.58;92688.84;1796650;77;21148;-87
2021/09/20 04:00:35;;;;;;;6.72;3.77;;;;;;;7.16;91.41;92685.37;1798482;79;21030;-89
2021/09/20 04:03:02;;;;;;;2.37;1.85;;;;;;;7.19;91.58;92682.47;1804486;78;21101;-89
2021/09/20 04:05:28;;;;;;;1.30;1.20;;;;;;;7.17;91.53;92678.80;1808175;78;21122;-89
2021/09/20 04:07:55;;;;;;;1.37;1.05;;;;;;;7.14;91.81;92683.63;1811760;78;21101;-88
2021/09/20 04:10:21;;;;;;;2.37;1.15;;;;;;;7.15;91.87;92675.72;1770771;76;21073;-89
2021/09/20 04:12:48;;;;;;;1.10;0.98;;;;;;;7.16;91.94;92681.90;1798024;77;20994;-90
2021/09/20 04:15:16;;;;;;;1.02;1.02;;;;;;;7.17;91.75;92680.73;1783087;78;21090;-88
2021/09/20 04:17:42;;;;;;;2.60;1.20;;;;;;;7.16;91.92;92685.95;1782175;79;21133;-89
2021/09/20 04:20:11;;;;;;;2.25;1.22;;;;;;;7.12;92.02;92690.60;1793285;78;21466;-88
2021/09/20 04:22:38;;;;;;;3.75;2.58;;;;;;;7.05;92.18;92685.39;1775081;78;21356;-89
2021/09/20 04:25:06;;;;;;;1.62;1.52;;;;;;;7.03;92.60;92688.29;1796870;77;21041;-90
2021/09/20 04:27:34;;;;;;;1.42;1.32;;;;;;;7.02;92.66;92686.75;1778137;79;21013;-89
2021/09/20 04:30:00;;;;;;;1.65;1.20;;;;;;;7.00;93.07;92689.86;1760078;79;21285;-90
2021/09/20 04:32:29;;;;;;;1.30;1.25;;;;;;;6.98;93.48;92698.92;1785545;78;21065;-91
2021/09/20 04:34:56;;;;;;;1.52;1.42;;;;;;;6.96;93.89;92693.15;1783270;79;20942;-90
2021/09/20 04:37:22;;;;;;;2.08;1.92;;;;;;;6.99;94.13;92699.11;1767711;79;21073;-89
2021/09/20 04:39:48;;;;;;;1.65;1.55;;;;;;;6.98;94.18;92697.58;1802118;77;20922;-86
2021/09/20 04:42:15;;;;;;;2.55;1.77;;;;;;;6.99;94.27;92702.39;1816536;78;21548;-91
2021/09/20 04:44:41;;;;;;;2.27;1.57;;;;;;;6.99;94.31;92699.11;1802721;79;20995;-90
2021/09/20 04:47:08;;;;;;;1.67;1.57;;;;;;;7.00;94.38;92701.25;1773316;78;21124;-91
2021/09/20 04:49:35;;;;;;;2.40;1.60;;;;;;;6.98;94.42;92702.98;1758920;80;21022;-90
2021/09/20 04:52:03;;;;;;;2.27;2.08;;;;;;;6.94;94.78;92710.91;1770764;78;21023;-90
2021/09/20 04:54:30;;;;;;;2.00;1.87;;;;;;;6.96;94.96;92716.71;1784829;79;21960;-89
2021/09/20 04:56:56;;;;;;;2.77;2.15;;;;;;;6.98;95.23;92717.08;1775637;79;20967;-89
2021/09/20 04:59:23;;;;;;;2.87;2.02;;;;;;;6.96;95.27;92720.18;1778797;78;20976;-91
2021/09/20 05:01:51;;;;;;;3.12;2.10;;;;;;;6.93;95.49;92718.25;1804005;77;21010;-90
2021/09/20 05:04:17;;;;;;;2.27;2.12;;;;;;;6.92;95.80;92714.56;1766463;80;21054;-90
2021/09/20 05:06:45;;;;;;;2.80;2.60;;;;;;;6.94;96.05;92719.02;1778524;79;21072;-90
2021/09/20 05:09:12;;;;;;;2.50;2.20;;;;;;;6.98;96.23;92708.97;1773515;78;21623;-90
2021/09/20 05:11:38;;;;;;;2.17;1.98;;;;;;;6.99;96.09;92713.97;1768191;79;21027;-90
2021/09/20 05:14:06;;;;;;;2.27;2.08;;;;;;;7.00;96.11;92717.47;1744215;81;21055;-89
2021/09/20 05:16:33;;;;;;;1.90;1.80;;;;;;;7.00;96.30;92720.17;1729867;80;21050;-88
2021/09/20 05:19:01;;;;;;;2.25;2.10;;;;;;;7.00;96.47;92725.00;1793110;78;21017;-90
2021/09/20 05:21:27;;;;;;;6.87;2.10;;;;;;;7.01;96.27;92721.13;1789003;77;21082;-88
2021/09/20 05:23:55;;;;;;;3.83;2.70;;;;;;;7.08;96.59;92718.23;1765275;77;21854;-90
2021/09/20 05:26:23;;;;;;;2.00;1.90;;;;;;;7.13;96.79;92725.34;1742311;79;21563;-91
2021/09/20 05:28:49;;;;;;;1.62;1.45;;;;;;;7.18;96.95;92727.64;1785480;77;21012;-92
2021/09/20 05:31:16;;;;;;;1.70;1.60;;;;;;;7.24;96.32;92736.91;1776010;79;21057;-92
2021/09/20 05:33:42;;;;;;;1.47;1.37;;;;;;;7.20;95.94;92733.45;1791128;79;21081;-93
2021/09/20 05:36:14;;;;;;;1.65;1.20;;;;;;;7.18;96.02;92730.94;1782252;78;20966;-91
2021/09/20 05:38:42;;;;;;;1.87;1.00;;;;;;;7.18;95.87;92729.58;1782153;78;21137;-91
2021/09/20 05:41:09;;;;;;;1.72;1.00;;;;;;;7.21;95.45;92731.51;1799112;78;21063;-92
2021/09/20 06:12:05;;;;;;;1.25;1.07;;;;;;;7.57;91.43;92748.42;1785990;78;20252;-92
2021/09/20 06:14:32;;;;;;;1.60;1.05;;;;;;;7.54;91.26;92741.08;1796186;78;21493;-91
2021/09/20 06:16:59;;;;;;;1.95;0.80;;;;;;;7.51;90.94;92740.50;1753420;79;21101;-89
2021/09/20 06:19:26;;;;;;;1.27;0.80;;;;;;;7.47;91.13;92740.52;1782375;76;21609;-91
2021/09/20 06:21:53;;;;;;;0.62;0.40;;;;;;;7.46;91.10;92744.39;1823419;76;21073;-90
2021/09/20 06:24:20;;;;;;;1.07;0.40;;;;;;;7.43;90.84;92742.46;1792322;78;21093;-91
2021/09/20 06:26:46;;;;;;;2.42;0.65;;;;;;;7.42;90.49;92742.28;1815502;77;21065;-90
2021/09/20 06:29:13;;;;;;;0.35;0.35;;;;;;;7.41;89.38;92748.86;1798760;77;21111;-88
2021/09/20 06:31:39;;;;;;;1.02;0.68;;;;;;;7.36;88.55;92744.42;1792934;78;21483;-90
2021/09/20 06:34:06;;;;;;;1.25;0.80;;;;;;;7.34;89.04;92745.41;1765179;79;21590;-91
2021/09/20 06:36:34;;;;;;;1.70;0.70;;;;;;;7.32;89.78;92749.06;1764135;79;21075;-86
2021/09/20 06:39:01;;;;;;;0.60;0.60;;;;;;;7.29;90.42;92751.96;1724481;80;21116;-88
2021/09/20 06:41:30;;;;;;;0.78;0.78;;;;;;;7.25;90.85;92754.67;1728339;81;21068;-89
2021/09/20 06:43:56;;;;;;;1.12;0.68;;;;;;;7.25;91.35;92756.61;1688646;82;21154;-91
2021/09/20 06:46:24;;;;;;;0.40;0.40;;;;;;;7.26;91.82;92760.30;1709799;81;21057;-91
2021/09/20 06:48:52;;;;;;;0.82;0.60;;;;;;;7.30;92.00;92761.64;1725989;81;21129;-91
2021/09/20 06:51:18;;;;;;;0.60;0.60;;;;;;;7.30;92.03;92758.34;1760628;79;21071;-91
2021/09/20 06:53:45;;;;;;;0.65;0.65;;;;;;;7.32;91.97;92768.77;1779843;78;21010;-88
2021/09/20 06:56:11;;;;;;;0.80;0.57;;;;;;;7.34;91.64;92766.45;1782495;78;21053;-91
2021/09/20 06:58:38;;;;;;;0.60;0.55;;;;;;;7.38;91.37;92760.45;1781814;78;21016;-89
2021/09/20 07:01:06;;;;;;;0.82;0.65;;;;;;;7.45;90.96;92764.50;1772317;78;21175;-90
2021/09/20 07:03:32;;;;;;;0.30;0.30;;;;;;;7.46;90.46;92767.38;1780079;78;21053;-91
2021/09/20 07:05:59;;;;;;;0.85;0.85;;;;;;;7.47;90.26;92771.62;1758833;78;21022;-90
2021/09/20 07:08:27;;;;;;;4.70;3.05;;;;;;;7.48;90.06;92774.52;1754950;79;21112;-91
2021/09/20 07:10:53;;;;;;;1.80;0.65;;;;;;;7.51;90.27;92775.09;1780947;79;21054;-88
2021/09/20 07:13:21;;;;;;;2.35;1.12;;;;;;;7.57;89.95;92780.12;1813676;77;21136;-87
2021/09/20 07:15:52;;;;;;;1.05;0.75;;;;;;;7.60;89.16;92774.70;1779347;79;21072;-90
2021/09/20 07:18:18;;;;;;;0.57;0.40;;;;;;;7.62;88.06;92779.12;1816843;77;21116;-91
2021/09/20 07:20:47;;;;;;;0.57;0.50;;;;;;;7.63;87.41;92782.01;1817263;77;21080;-90
2021/09/20 07:23:13;;;;;;;3.50;2.40;;;;;;;7.65;86.96;92792.45;1811355;77;21299;-91
2021/09/20 07:25:40;;;;;;;2.20;1.30;;;;;;;7.63;86.17;92789.36;1813639;77;21105;-91
2021/09/20 07:28:06;;;;;;;0.82;0.70;;;;;;;7.62;86.20;92791.88;1815405;77;21041;-88
2021/09/20 07:30:33;;;;;;;0.80;0.80;;;;;;;7.61;86.17;92795.17;1814437;77;21092;-92
2021/09/20 07:32:59;;;;;;;0.40;0.40;;;;;;;7.58;86.71;92794.59;1814858;77;21436;-88
2021/09/20 07:35:26;;;;;;;0.30;0.30;;;;;;;7.53;86.76;92793.07;1815966;77;20994;-90
2021/09/20 07:37:55;;;;;;;0.20;0.20;;;;;;;7.47;86.79;92797.91;1815620;77;21069;-90
2021/09/20 07:40:24;;;;;;;0.50;0.50;;;;;;;7.42;87.12;92793.67;1816892;77;22045;-91
2021/09/20 07:42:52;;;;;;;1.57;0.55;;;;;;;7.42;87.10;92792.32;1814147;77;21053;-88
2021/09/20 07:45:19;;;;;;;0.37;0.37;;;;;;;7.45;86.71;92796.19;1817228;77;21014;-90
2021/09/20 07:47:48;;;;;;;0.50;0.50;;;;;;;7.46;86.55;92798.49;1793428;77;21046;-91
2021/09/20 07:50:15;;;;;;;0.95;0.80;;;;;;;7.44;86.49;92804.86;1793232;78;21103;-91
2021/09/20 07:52:42;;;;;;;1.02;0.93;;;;;;;7.40;86.40;92803.33;1819477;77;21084;-89
2021/09/20 07:55:14;;;;;;;;;;;;;;;;;;;;;
2021/09/20 07:57:40;;;;;;;0.80;0.80;;;;;;;7.30;87.12;92803.55;1773739;78;21571;-90
2021/09/20 08:00:08;;;;;;;1.40;0.90;;;;;;;7.22;87.43;92807.41;1759576;80;21553;-89
2021/09/20 08:02:34;;;;;;;2.20;1.05;;;;;;;7.18;87.95;92807.41;1757311;79;21094;-90
2021/09/20 08:05:01;;;;;;;2.30;2.10;;;;;;;7.18;87.27;92809.34;1754944;80;21443;-88
2021/09/20 08:07:28;;;;;;;0.85;0.80;;;;;;;7.18;87.22;92807.41;1757131;79;21044;-91
2021/09/20 08:09:55;;;;;;;3.65;0.80;;;;;;;7.19;86.89;92806.86;1792635;78;21022;-90
2021/09/20 08:12:24;;;;;;;1.62;1.00;;;;;;;7.16;86.70;92811.68;1755359;78;21057;-90
2021/09/20 08:14:51;;;;;;;0.65;0.40;;;;;;;7.15;86.80;92814.20;1771308;79;21139;-90
2021/09/20 08:17:17;;;;;;;2.65;1.10;;;;;;;7.09;86.49;92811.69;1723934;80;21649;-90
2021/09/20 08:19:46;;;;;;;0.90;0.90;;;;;;;7.05;86.57;92814.39;1708258;80;21148;-90
2021/09/20 08:22:12;;;;;;;0.95;0.70;;;;;;;7.06;86.70;92815.92;1779860;79;21026;-91
2021/09/20 08:24:38;;;;;;;10.13;5.80;;;;;;;7.08;86.64;92810.91;1764196;79;21066;-91
2021/09/20 08:27:05;;;;;;;2.17;1.70;;;;;;;7.11;86.63;92816.11;1783625;76;21321;-89
2021/09/20 08:29:32;;;;;;;4.00;1.20;;;;;;;7.11;86.63;92814.20;1779683;77;21534;-90
2021/09/20 08:31:59;;;;;;;1.17;1.07;;;;;;;7.09;86.88;92808.98;1763416;79;21109;-90
2021/09/20 08:34:26;;;;;;;0.90;0.90;;;;;;;7.06;87.15;92818.63;1782832;79;21324;-91
2021/09/20 08:36:53;;;;;;;3.30;3.00;;;;;;;7.06;87.26;92820.75;1731761;81;21080;-91
2021/09/20 08:39:20;;;;;;;1.20;1.10;;;;;;;7.12;86.63;92817.67;1787818;77;21619;-89
2021/09/20 08:41:46;;;;;;;1.40;1.30;;;;;;;7.14;85.78;92816.69;1770999;77;21133;-88
2021/09/20 08:44:13;;;;;;;2.90;0.90;;;;;;;7.16;85.89;92820.56;1730193;80;21031;-91
2021/09/20 08:46:39;;;;;;;1.00;0.90;;;;;;;7.21;86.07;92826.92;1754854;79;21045;-90
2021/09/20 08:49:07;;;;;;;1.90;1.12;;;;;;;7.23;85.91;92825.97;1784309;80;21132;-89
2021/09/20 08:51:35;;;;;;;0.75;0.72;;;;;;;7.25;85.21;92822.86;1750885;80;21093;-89
2021/09/20 08:54:01;;;;;;;2.12;1.40;;;;;;;7.28;85.16;92825.56;1728088;80;21077;-90
2021/09/20 08:56:29;;;;;;;0.90;0.90;;;;;;;7.28;84.65;92826.14;1741350;78;21115;-89
2021/09/20 08:58:57;;;;;;;0.70;0.70;;;;;;;7.28;83.98;92827.50;1786327;78;21240;-90
2021/09/20 09:01:24;;;;;;;0.78;0.78;;;;;;;7.30;83.66;92831.37;1725739;80;21128;-92
2021/09/20 09:03:51;;;;;;;0.50;0.50;;;;;;;7.30;83.62;92829.25;1738866;80;22203;-87
2021/09/20 09:06:29;;;;;;;0.62;0.62;;;;;;;7.33;84.05;92836.56;1795442;77;21009;-89
2021/09/20 09:08:55;;;;;;;0.78;0.50;;;;;;;7.32;83.89;92826.14;1820767;77;20986;-88
2021/09/20 09:11:24;;;;;;;0.68;0.68;;;;;;;7.30;83.99;92835.42;1804740;77;21781;-91
2021/09/20 09:13:55;;;;;;;0.68;0.68;;;;;;;7.31;84.00;92837.55;1757126;78;21070;-86
2021/09/20 09:16:29;;;;;;;0.95;0.60;;;;;;;7.33;84.35;92843.33;1719277;81;21318;-90
2021/09/20 09:19:08;;;;;;;23.05;15.15;;;;;;;7.38;84.10;92835.42;1754390;80;21033;-91
2021/09/20 09:21:40;;;;;;;19.32;11.12;;;;;;;7.42;84.50;92842.36;1755475;78;21061;-86
2021/09/20 09:24:14;;;;;;;3.92;2.83;;;;;;;7.46;83.83;92835.59;1738587;81;21074;-90
2021/09/20 09:26:59;;;;;;;2.08;1.60;;;;;;;7.46;83.26;92840.42;1749911;79;21123;-90
2021/09/20 09:29:27;;;;;;;3.05;2.85;;;;;;;7.46;82.98;92836.95;1783233;78;21897;-87
2021/09/20 09:31:56;;;;;;;1.57;1.47;;;;;;;7.42;83.03;92845.06;1782556;79;21533;-87
2021/09/20 09:34:31;;;;;;;1.20;0.68;;;;;;;7.40;83.52;92840.61;1752935;80;21048;-86
2021/09/20 09:37:12;;;;;;;3.65;1.60;;;;;;;7.36;83.58;92840.43;1771786;80;21050;-87
2021/09/20 09:39:40;;;;;;;0.85;0.85;;;;;;;7.34;83.75;92844.89;1826713;77;21169;-90
2021/09/20 09:42:27;;;;;;;1.52;1.42;;;;;;;7.36;83.69;92840.43;1793257;76;21781;-87
2021/09/20 09:44:55;;;;;;;0.70;0.60;;;;;;;7.37;83.84;92839.27;1746230;80;21069;-89
2021/09/20 09:47:28;;;;;;;0.90;0.90;;;;;;;7.41;83.70;92834.63;1745337;80;21089;-86
2021/09/20 09:49:54;;;;;;;0.88;0.88;;;;;;;7.41;84.04;92838.13;1741686;80;21503;-86
2021/09/20 09:52:21;;;;;;;1.55;1.10;;;;;;;7.43;83.63;92835.78;1784571;78;21037;-89
2021/09/20 09:54:51;;;;;;;1.25;0.90;;;;;;;7.42;83.47;92836.95;1786645;78;22093;-90
2021/09/20 09:57:23;;;;;;;1.72;1.40;;;;;;;7.43;83.09;92841.19;1770488;78;21061;-90
2021/09/20 10:00:01;;;;;;;1.40;1.30;;;;;;;7.44;83.24;92840.02;1814845;77;21013;-90
2021/09/20 10:02:32;;;;;;;1.30;1.00;;;;;;;7.48;83.08;92835.38;1813330;77;21064;-89
2021/09/20 10:07:36;;;;;;;1.15;0.95;;;;;;;7.53;83.21;92841.00;1789915;77;21136;-89
2021/09/20 10:10:16;;;;;;;0.60;0.60;;;;;;;7.55;82.91;92842.72;1769133;79;21010;-90
2021/09/20 10:12:47;;;;;;;1.40;1.30;;;;;;;7.58;82.76;92839.23;1729122;80;21058;-89
2021/09/20 10:15:17;;;;;;;2.00;1.80;;;;;;;7.62;82.85;92833.23;1743165;80;21093;-90
2021/09/20 10:17:44;;;;;;;2.47;2.20;;;;;;;7.67;83.73;92816.62;1783326;78;21046;-90
2021/09/20 10:20:21;;;;;;;5.12;2.15;;;;;;;7.80;84.56;92825.08;1801004;78;21026;-90
2021/09/20 10:22:48;;;;;;;2.35;1.62;;;;;;;7.94;83.72;92825.04;1775072;79;21066;-90
2021/09/20 10:25:17;;;;;;;1.55;1.45;;;;;;;8.04;83.22;92822.08;1801474;77;21024;-89
2021/09/20 10:27:44;;;;;;;1.52;1.42;;;;;;;8.11;82.82;92824.00;1800838;77;21063;-89
2021/09/20 10:30:13;;;;;;;1.67;0.98;;;;;;;8.13;82.23;92825.16;1783612;78;21064;-89
2021/09/20 10:32:44;;;;;;;2.52;1.15;;;;;;;8.14;82.66;92826.69;1768782;78;21199;-88
2021/09/20 10:35:39;;;;;;;3.17;1.42;;;;;;;8.17;82.51;92825.14;1772409;79;21017;-87
2021/09/20 10:40:38;;;;;;;3.72;0.88;;;;;;;8.16;82.21;92821.67;1739482;80;21058;-90
2021/09/20 10:43:06;;;;;;;0.90;0.70;;;;;;;8.18;82.31;92818.55;1753773;80;21085;-90
2021/09/20 10:45:44;;;;;;;1.15;1.05;;;;;;;8.20;82.06;92821.66;1755036;80;21604;-91
2021/09/20 10:48:29;;;;;;;1.92;1.42;;;;;;;8.20;81.43;92820.30;1778254;78;21292;-90
2021/09/20 10:51:16;;;;;;;1.77;1.27;;;;;;;8.21;81.73;92816.41;1750449;80;21065;-89
2021/09/20 10:53:43;;;;;;;4.67;2.37;;;;;;;8.25;81.99;92814.45;1729566;81;21266;-89
2021/09/20 10:56:13;;;;;;;5.60;3.25;;;;;;;8.22;81.77;92813.89;1723696;80;21028;-89
2021/09/20 10:58:43;;;;;;;2.12;1.20;;;;;;;8.22;82.00;92815.24;1764750;78;21116;-89
2021/09/20 11:01:19;;;;;;;1.22;0.95;;;;;;;8.18;81.59;92812.55;1749823;78;21052;-89
2021/09/20 11:04:03;;;;;;;1.27;1.17;;;;;;;8.17;81.96;92806.19;1753258;78;21120;-89
2021/09/20 11:06:37;;;;;;;2.37;1.52;;;;;;;8.18;82.30;92808.48;1751086;78;21168;-92
2021/09/20 11:09:12;;;;;;;1.40;1.30;;;;;;;8.22;82.63;92805.77;1730896;79;21101;-91
2021/09/20 11:11:44;;;;;;;0.80;0.80;;;;;;;8.28;82.42;92795.48;1731788;80;21924;-88
2021/09/20 11:14:22;;;;;;;1.07;1.02;;;;;;;8.35;82.18;92797.39;1728405;81;21061;-92
2021/09/20 11:16:57;;;;;;;0.82;0.82;;;;;;;8.41;81.94;92801.83;1711497;81;21123;-89
2021/09/20 11:19:32;;;;;;;1.72;1.40;;;;;;;8.45;81.79;92808.76;1776527;78;21043;-91
2021/09/20 11:22:13;;;;;;;2.10;1.90;;;;;;;8.46;81.63;92796.77;1788200;78;21775;-91
2021/09/20 11:24:52;;;;;;;3.55;2.62;;;;;;;8.48;81.61;92797.72;1788774;78;21654;-87
2021/09/20 11:27:34;;;;;;;1.40;1.30;;;;;;;8.47;81.78;92803.73;1783492;77;21651;-88
2021/09/20 11:30:25;;;;;;;1.02;0.90;;;;;;;8.50;81.34;92804.88;1766911;78;21046;-90
2021/09/20 11:33:02;;;;;;;3.05;1.77;;;;;;;8.48;81.25;92799.84;1719832;80;21122;-89
2021/09/20 11:35:30;;;;;;;4.33;2.40;;;;;;;8.49;81.55;92795.95;1777053;78;21060;-89
2021/09/20 11:37:59;;;;;;;2.10;1.85;;;;;;;8.54;81.63;92795.34;1771525;78;21583;-90
2021/09/20 11:40:28;;;;;;;2.10;1.90;;;;;;;8.55;81.78;92795.56;1752920;79;21112;-89
2021/09/20 11:43:01;;;;;;;2.05;1.25;;;;;;;8.59;82.26;92790.88;1740418;80;20949;-89
2021/09/20 11:45:31;;;;;;;1.30;1.20;;;;;;;8.67;82.19;92793.73;1737126;80;21054;-91
2021/09/20 11:48:01;;;;;;;1.45;1.27;;;;;;;8.78;81.61;92793.07;1792399;77;21101;-90
2021/09/20 11:50:31;;;;;;;1.52;1.42;;;;;;;8.89;80.92;92791.64;1775070;79;21065;-88
2021/09/20 11:53:05;;;;;;;1.45;1.22;;;;;;;8.96;80.08;92794.30;1765834;79;21137;-88
2021/09/20 11:55:35;;;;;;;1.52;1.30;;;;;;;8.99;79.18;92796.98;1765119;77;21089;-90
2021/09/20 11:58:04;;;;;;;1.17;1.07;;;;;;;9.03;79.68;92790.73;1779934;77;20920;-89
2021/09/20 12:00:34;;;;;;;1.47;1.35;;;;;;;9.04;78.89;92782.80;1771273;79;20987;-91
2021/09/20 12:03:02;;;;;;;1.15;1.05;;;;;;;9.01;78.26;92787.08;1768799;79;21194;-90
2021/09/20 12:05:33;;;;;;;1.20;1.10;;;;;;;8.96;78.11;92792.94;1767142;79;21053;-89
2021/09/20 12:08:14;;;;;;;1.10;0.98;;;;;;;8.92;78.21;92794.91;1744384;79;21770;-89
2021/09/20 12:10:48;;;;;;;1.98;1.55;;;;;;;8.88;78.42;92791.46;1826715;76;21023;-86
2021/09/20 12:13:31;;;;;;;2.87;1.47;;;;;;;8.80;78.36;92793.45;1819263;76;21138;-87
2021/09/20 12:16:05;;;;;;;2.15;1.35;;;;;;;8.79;78.78;92797.90;1827959;77;21701;-90
2021/09/20 12:18:33;;;;;;;1.12;1.00;;;;;;;8.79;79.46;92797.90;1812823;77;21093;-89
2021/09/20 12:21:05;;;;;;;1.07;0.98;;;;;;;8.82;79.87;92795.75;1791302;78;21107;-92
2021/09/20 12:23:43;;;;;;;2.62;1.10;;;;;;;8.84;79.67;92795.55;1771213;79;21065;-88